Adamant, VT

12:33 PM EST on March 06, 2015 (GMT -0500)
Cummings Rd | Change Station
CLOSE
Current Station
Personal Weather Station
Location: Montpelier, VT
Elevation: 1265 ft
Nearby Weather Stations

Elev 1265 ft 44.29 °N, 72.55 °W | Updated 5 minutes ago

Clear
Clear
16.4 °F
Feels Like 16 °F
N
2.0
Wind Variable Wind from SW
Gusts 9.0 mph

Today
High -- | Low -- °F
--% Chance of Precip.
Yesterday
High -- | Low -- °F
Precip. -- in
6:18 AM 5:44 PM
Full, 99% visible
Pressure 30.48 in
Visibility 10.0 miles
Clouds Clear
Windchill 16 °F
Dew Point -2 °F
Humidity 45%
Rainfall in
Snow Depth Not available.
UV 6 out of 12
Pollen .40 out of 12
Air Quality Not available.
Flu Activity Not available.
METAR KMPV 061651Z AUTO 05004KT 10SM CLR M09/M22 A3039 RMK AO2 SLP321 T10941217

More Conditions Fewer Conditions

Pressure 30.48 in
Visibility 10.0 miles
Clouds Clear
Windchill 16 °F
Dew Point -2 °F
Humidity 45%
Rainfall in
Snow Depth Not available.
UV 6 out of 12
Pollen .40 out of 12
Air Quality Not available.
Flu Activity Not available.
METAR KMPV 061651Z AUTO 05004KT 10SM CLR M09/M22 A3039 RMK AO2 SLP321 T10941217

More Conditions Fewer Conditions

10-Day Weather Forecast

Almanac

Astronomy

Mar. 06, 2015 Rise Set
Actual Time
Civil Twilight
Nautical Twilight
Astronomical Twilight
Moon
Length of Visible Light
Length of Day
Tomorrow will be .
, % of the Moon is Illuminated

Today's Extremes

State Highs State Lows

Community

WunderPhotos

Upload Photos

1,803,345 photos uploaded!

WunderBlogs® & News

Nearby

Air Quality

  Air Quality AQ Index Pollutant
Not available.

Snow Depth

Station Depth Elevation

Earthquake Activity

City Distance Mag. Time & Date
Minimum magnitude displayed is 2.5.

Coastal Water Temperatures

Place Temperature

Nearby Weather Stations